createdAt,value
2018-09-05T00:02:08.153Z,86.94
2018-09-05T00:04:36.569Z,87.35
2018-09-05T00:07:04.972Z,86.82
2018-09-05T00:09:33.385Z,87.39
2018-09-05T00:12:01.797Z,87.33
2018-09-05T00:14:30.238Z,87.39
2018-09-05T00:16:58.638Z,87.53
2018-09-05T00:19:27.082Z,87.63
2018-09-05T00:21:55.705Z,87.32
2018-09-05T00:24:24.139Z,87.90
2018-09-05T00:26:52.543Z,88.39
2018-09-05T00:29:20.978Z,87.77
2018-09-05T00:31:49.377Z,87.79
2018-09-05T00:34:17.793Z,88.38
2018-09-05T00:36:46.194Z,87.29
2018-09-05T00:39:14.630Z,87.24
2018-09-05T00:41:43.025Z,86.82
2018-09-05T00:44:11.445Z,86.87
2018-09-05T00:46:39.839Z,87.66
2018-09-05T00:49:08.266Z,87.56
2018-09-05T00:51:36.686Z,87.80
2018-09-05T00:54:05.311Z,87.03
2018-09-05T00:56:33.732Z,87.24
2018-09-05T00:59:02.154Z,86.92
2018-09-05T01:01:30.553Z,87.24
2018-09-05T01:03:59.000Z,87.24
2018-09-05T01:06:27.405Z,86.61
2018-09-05T01:08:55.843Z,87.20
2018-09-05T01:11:24.246Z,86.56
2018-09-05T01:13:52.673Z,86.75
2018-09-05T01:16:21.073Z,86.03
2018-09-05T01:18:49.515Z,86.28
2018-09-05T01:21:17.940Z,86.05
2018-09-05T01:23:46.379Z,85.95
2018-09-05T01:26:14.781Z,85.61
2018-09-05T01:28:43.224Z,86.46
2018-09-05T01:31:11.625Z,86.65
2018-09-05T01:33:40.054Z,86.91
2018-09-05T01:36:13.814Z,86.06
2018-09-05T01:38:42.970Z,85.94
2018-09-05T01:41:12.043Z,86.24
2018-09-05T01:43:41.358Z,87.09
2018-09-05T01:46:09.773Z,86.63
2018-09-05T01:48:38.738Z,87.33
2018-09-05T01:51:07.151Z,87.32
2018-09-05T01:53:35.827Z,87.05
2018-09-05T01:56:04.244Z,87.52
2018-09-05T01:58:32.708Z,87.27
2018-09-05T02:01:01.164Z,88.05
2018-09-05T02:03:29.646Z,88.05
2018-09-05T02:05:58.078Z,88.53
2018-09-05T02:08:26.495Z,87.87
2018-09-05T02:10:54.931Z,88.34
2018-09-05T02:13:23.328Z,88.74
2018-09-05T02:15:51.739Z,88.03
2018-09-05T02:18:20.163Z,87.48
2018-09-05T02:20:48.598Z,87.63
2018-09-05T02:23:16.975Z,87.75
2018-09-05T02:25:45.395Z,87.53
2018-09-05T02:28:13.777Z,88.42
2018-09-05T02:30:42.182Z,88.46
2018-09-05T02:33:10.569Z,88.24
2018-09-05T02:35:38.978Z,88.35
2018-09-05T02:38:07.367Z,88.42
2018-09-05T02:40:35.829Z,87.70
2018-09-05T02:43:04.205Z,87.89
2018-09-05T02:45:32.647Z,87.78
2018-09-05T02:48:01.043Z,88.05
2018-09-05T02:50:29.480Z,88.23
2018-09-05T02:52:57.891Z,88.37
2018-09-05T02:55:31.739Z,88.31
2018-09-05T02:58:09.683Z,87.83
2018-09-05T03:00:38.096Z,88.35
2018-09-05T03:03:06.765Z,87.47
2018-09-05T03:05:35.169Z,87.09
2018-09-05T03:08:03.558Z,87.46
2018-09-05T03:10:31.976Z,87.43
2018-09-05T03:13:00.367Z,87.37
2018-09-05T03:15:28.782Z,87.18
2018-09-05T03:17:57.163Z,86.65
2018-09-05T03:20:25.587Z,87.57
2018-09-05T03:22:53.969Z,87.69
2018-09-05T03:25:22.405Z,87.03
2018-09-05T03:27:50.773Z,86.86
2018-09-05T03:30:19.179Z,87.60
2018-09-05T03:32:47.633Z,87.78
2018-09-05T03:35:16.226Z,87.33
2018-09-05T03:37:44.601Z,87.10
2018-09-05T03:40:12.999Z,87.08
2018-09-05T03:42:41.378Z,86.79
2018-09-05T03:45:09.814Z,87.72
2018-09-05T03:47:38.213Z,87.47
2018-09-05T03:50:07.484Z,87.32
2018-09-05T03:52:35.983Z,87.61
2018-09-05T03:55:04.385Z,87.63
2018-09-05T03:57:32.775Z,87.21
2018-09-05T04:00:01.227Z,87.50
2018-09-05T04:02:29.623Z,88.27
2018-09-05T04:04:59.034Z,88.34
2018-09-05T04:07:27.935Z,87.89
2018-09-05T04:09:56.329Z,88.17
2018-09-05T04:12:24.729Z,88.16
2018-09-05T04:14:53.251Z,87.68
2018-09-05T04:17:21.846Z,87.92
2018-09-05T04:19:50.255Z,88.04
2018-09-05T04:22:18.672Z,88.06
2018-09-05T04:24:47.080Z,86.64
2018-09-05T04:27:15.670Z,86.65
2018-09-05T04:29:44.077Z,87.21
2018-09-05T04:32:12.551Z,87.16
2018-09-05T04:34:40.953Z,87.35
2018-09-05T04:37:09.371Z,87.09
2018-09-05T04:39:37.749Z,87.23
2018-09-05T04:42:06.154Z,87.37
2018-09-05T04:44:34.534Z,87.54
2018-09-05T04:47:02.940Z,87.58
2018-09-05T04:49:31.327Z,87.85
2018-09-05T04:51:59.726Z,87.71
2018-09-05T04:54:28.132Z,87.34
2018-09-05T04:56:56.544Z,87.22
2018-09-05T04:59:24.926Z,87.32
2018-09-05T05:01:53.330Z,87.19
2018-09-05T05:04:21.723Z,87.66
2018-09-05T05:06:50.214Z,87.34
2018-09-05T05:09:18.623Z,87.15
2018-09-05T05:11:47.040Z,86.82
2018-09-05T05:14:15.423Z,86.52
2018-09-05T05:16:43.852Z,87.13
2018-09-05T05:19:12.271Z,86.66
2018-09-05T05:21:40.688Z,86.70
2018-09-05T05:24:09.073Z,86.77
2018-09-05T05:26:37.484Z,86.94
2018-09-05T05:29:05.871Z,86.95
2018-09-05T05:31:34.287Z,87.13
2018-09-05T05:34:02.672Z,86.24
2018-09-05T05:36:31.087Z,86.72
2018-09-05T05:38:59.476Z,86.69
2018-09-05T05:41:28.023Z,86.37
2018-09-05T05:43:56.420Z,86.21
2018-09-05T05:46:24.866Z,86.00
2018-09-05T05:48:53.243Z,86.03
2018-09-05T05:51:22.951Z,85.49
2018-09-05T05:53:51.337Z,85.17
2018-09-05T05:56:19.740Z,85.01
2018-09-05T05:58:48.149Z,84.89
2018-09-05T06:01:16.678Z,85.12
2018-09-05T06:03:45.060Z,84.18
2018-09-05T06:06:13.534Z,83.58
2018-09-05T06:08:41.909Z,84.00
2018-09-05T06:11:10.290Z,83.66
2018-09-05T06:13:38.698Z,82.91
2018-09-05T06:16:07.089Z,83.33
2018-09-05T06:18:35.615Z,83.52
2018-09-05T06:21:04.085Z,83.82
2018-09-05T06:23:32.462Z,83.48
2018-09-05T06:26:00.843Z,83.03
2018-09-05T06:28:29.251Z,83.68
2018-09-05T06:30:57.758Z,83.74
2018-09-05T06:33:26.099Z,84.15
2018-09-05T06:35:54.491Z,83.40
2018-09-05T06:38:22.908Z,83.34
2018-09-05T06:40:51.278Z,84.21
2018-09-05T06:43:19.679Z,83.18
2018-09-05T06:45:48.057Z,84.26
2018-09-05T06:48:16.459Z,83.87
2018-09-05T06:50:44.874Z,82.98
2018-09-05T06:53:13.271Z,83.59
2018-09-05T06:55:41.655Z,82.93
2018-09-05T06:58:10.160Z,83.54
2018-09-05T07:00:38.526Z,83.64
2018-09-05T07:03:07.119Z,83.38
2018-09-05T07:05:35.516Z,83.41
2018-09-05T07:08:03.921Z,84.31
2018-09-05T07:10:32.299Z,83.53
2018-09-05T07:13:00.737Z,84.11
2018-09-05T07:15:29.123Z,83.58
2018-09-05T07:17:58.152Z,83.62
2018-09-05T07:20:26.572Z,82.92
2018-09-05T07:22:54.983Z,82.24
2018-09-05T07:25:23.367Z,82.74
2018-09-05T07:27:52.400Z,82.46
2018-09-05T07:30:20.801Z,82.26
2018-09-05T07:32:49.222Z,81.74
2018-09-05T07:35:17.607Z,80.24
2018-09-05T07:37:46.027Z,79.48
2018-09-05T07:40:14.401Z,79.17
2018-09-05T07:42:42.817Z,78.75
2018-09-05T07:45:11.211Z,77.53
2018-09-05T07:47:39.616Z,77.42
2018-09-05T07:50:08.295Z,76.94
2018-09-05T07:52:36.703Z,75.88
2018-09-05T07:55:05.091Z,75.41
2018-09-05T07:57:33.495Z,75.01
2018-09-05T08:00:02.042Z,75.25
2018-09-05T08:02:30.467Z,75.01
2018-09-05T08:04:58.851Z,75.04
2018-09-05T08:07:27.223Z,75.89
2018-09-05T08:09:55.652Z,75.25
2018-09-05T08:12:24.095Z,76.00
2018-09-05T08:14:52.493Z,76.23
2018-09-05T08:17:20.915Z,75.63
2018-09-05T08:19:49.333Z,75.50
2018-09-05T08:22:17.697Z,74.31
2018-09-05T08:24:46.347Z,73.98
2018-09-05T08:27:14.727Z,72.84
2018-09-05T08:29:43.127Z,70.88
2018-09-05T08:32:11.499Z,69.04
2018-09-05T08:34:40.065Z,69.29
2018-09-05T08:37:08.550Z,68.86
2018-09-05T08:39:36.802Z,69.01
2018-09-05T08:42:05.254Z,67.89
2018-09-05T08:44:33.714Z,67.09
2018-09-05T08:47:02.247Z,67.50
2018-09-05T08:49:30.631Z,67.20
2018-09-05T08:51:58.995Z,67.11
2018-09-05T08:54:27.385Z,65.71
2018-09-05T08:56:55.764Z,65.07
2018-09-05T08:59:24.228Z,64.70
2018-09-05T09:01:52.593Z,64.97
2018-09-05T09:04:20.995Z,64.74
2018-09-05T09:06:49.371Z,65.17
2018-09-05T09:09:17.786Z,65.07
2018-09-05T09:11:46.202Z,65.07
2018-09-05T09:14:14.570Z,64.85
2018-09-05T09:16:42.982Z,62.64
2018-09-05T09:19:11.419Z,61.54
2018-09-05T09:21:39.837Z,61.20
2018-09-05T09:24:08.882Z,61.01
2018-09-05T09:26:37.263Z,61.00
2018-09-05T09:29:05.776Z,60.48
2018-09-05T09:31:34.179Z,60.39
2018-09-05T09:34:02.591Z,60.66
2018-09-05T09:36:30.974Z,60.68
2018-09-05T09:38:59.371Z,59.60
2018-09-05T09:41:27.755Z,60.40
2018-09-05T09:43:56.154Z,60.13
2018-09-05T09:46:24.589Z,61.19
2018-09-05T09:48:52.975Z,61.20
2018-09-05T09:51:22.982Z,61.80
2018-09-05T09:53:52.193Z,62.42
2018-09-05T09:56:20.650Z,63.24
2018-09-05T09:58:49.029Z,62.41
2018-09-05T10:01:22.718Z,62.90
2018-09-05T10:03:56.452Z,62.11
2018-09-05T10:06:30.200Z,61.45
2018-09-05T10:10:04.305Z,61.28
2018-09-05T10:12:37.741Z,61.43
2018-09-05T10:15:13.658Z,60.36
2018-09-05T10:17:42.099Z,60.66
2018-09-05T10:20:10.518Z,60.75
2018-09-05T10:22:38.912Z,60.21
2018-09-05T10:25:07.319Z,60.48
2018-09-05T10:27:35.695Z,61.66
2018-09-05T10:30:04.095Z,61.33
2018-09-05T10:32:32.472Z,61.82
2018-09-05T10:35:00.864Z,60.52
2018-09-05T10:37:29.251Z,61.38
2018-09-05T10:39:57.651Z,60.61
2018-09-05T10:42:26.036Z,60.03
2018-09-05T10:44:54.462Z,60.73
2018-09-05T10:47:22.833Z,60.46
2018-09-05T10:49:51.251Z,60.73
2018-09-05T10:52:19.627Z,60.50
2018-09-05T10:54:48.020Z,59.38
2018-09-05T10:57:16.462Z,55.48
2018-09-05T10:59:44.831Z,54.60
2018-09-05T11:02:13.226Z,54.97
2018-09-05T11:04:41.594Z,53.77
2018-09-05T11:07:09.974Z,53.52
2018-09-05T11:09:38.461Z,53.71
2018-09-05T11:12:06.848Z,53.00
2018-09-05T11:14:35.218Z,53.45
2018-09-05T11:17:03.686Z,53.70
2018-09-05T11:19:32.084Z,54.35
2018-09-05T11:22:00.485Z,54.31
2018-09-05T11:24:28.870Z,52.71
2018-09-05T11:26:57.265Z,53.17
2018-09-05T11:29:25.637Z,52.70
2018-09-05T11:31:54.033Z,52.60
2018-09-05T11:34:22.419Z,52.80
2018-09-05T11:36:50.853Z,53.82
2018-09-05T11:39:19.242Z,54.20
2018-09-05T11:41:47.633Z,53.95
2018-09-05T11:44:16.008Z,53.49
2018-09-05T11:46:44.404Z,53.70
2018-09-05T11:49:12.799Z,54.21
2018-09-05T11:51:41.189Z,53.88
2018-09-05T11:54:10.230Z,53.64
2018-09-05T11:56:38.835Z,53.93
2018-09-05T11:59:07.499Z,51.61
2018-09-05T12:01:35.963Z,50.54
2018-09-05T12:04:04.346Z,51.06
2018-09-05T12:06:32.739Z,49.37
2018-09-05T12:09:01.110Z,50.06
2018-09-05T12:11:29.510Z,51.15
2018-09-05T12:13:57.894Z,50.34
2018-09-05T12:16:26.283Z,50.79
2018-09-05T12:18:54.650Z,51.62
2018-09-05T12:21:23.066Z,50.82
2018-09-05T12:23:51.425Z,50.51
2018-09-05T12:26:19.831Z,51.06
2018-09-05T12:28:48.207Z,50.35
2018-09-05T12:31:16.610Z,49.66
2018-09-05T12:33:44.976Z,49.36
2018-09-05T12:36:13.375Z,50.64
2018-09-05T12:38:41.755Z,49.78
2018-09-05T12:41:10.142Z,49.65
2018-09-05T12:43:38.515Z,50.28
2018-09-05T12:46:06.903Z,50.04
2018-09-05T12:48:35.330Z,51.40
2018-09-05T12:51:03.675Z,51.39
2018-09-05T12:53:32.070Z,51.11
2018-09-05T12:56:00.444Z,51.60
2018-09-05T12:58:28.855Z,51.78
2018-09-05T13:00:57.236Z,50.65
2018-09-05T13:03:25.633Z,50.73
2018-09-05T13:05:53.998Z,51.74
2018-09-05T13:08:22.403Z,51.92
2018-09-05T13:10:50.787Z,50.59
2018-09-05T13:13:19.187Z,50.65
2018-09-05T13:15:47.549Z,48.79
2018-09-05T13:18:15.942Z,48.73
2018-09-05T13:20:44.340Z,48.86
2018-09-05T13:23:12.739Z,48.50
2018-09-05T13:25:41.117Z,50.16
2018-09-05T13:28:09.649Z,49.84
2018-09-05T13:30:38.015Z,49.70
2018-09-05T13:33:06.481Z,49.35
2018-09-05T13:35:34.807Z,49.25
2018-09-05T13:38:03.208Z,49.13
2018-09-05T13:40:31.578Z,48.13
2018-09-05T13:42:59.987Z,48.26
2018-09-05T13:45:28.532Z,48.77
2018-09-05T13:47:56.936Z,48.23
2018-09-05T13:50:25.312Z,48.67
2018-09-05T13:52:53.740Z,48.53
2018-09-05T13:55:22.148Z,49.34
2018-09-05T13:57:50.539Z,49.06
2018-09-05T14:00:18.919Z,49.61
2018-09-05T14:02:47.943Z,48.55
2018-09-05T14:05:16.995Z,48.10
2018-09-05T14:07:45.436Z,47.83
2018-09-05T14:10:14.878Z,47.45
2018-09-05T14:12:43.277Z,48.01
2018-09-05T14:15:11.654Z,48.13
2018-09-05T14:17:40.051Z,47.86
2018-09-05T14:20:08.484Z,47.58
2018-09-05T14:22:36.902Z,47.02
2018-09-05T14:25:05.310Z,47.62
2018-09-05T14:27:33.924Z,48.24
2018-09-05T14:30:02.267Z,47.38
2018-09-05T14:32:30.677Z,47.49
2018-09-05T14:34:59.059Z,47.31
2018-09-05T14:37:27.452Z,47.16
2018-09-05T14:39:55.858Z,48.66
2018-09-05T14:42:24.251Z,47.67
2018-09-05T14:44:52.639Z,48.72
2018-09-05T14:47:21.055Z,49.07
2018-09-05T14:49:49.479Z,49.03
2018-09-05T14:52:17.856Z,49.06
2018-09-05T14:54:46.255Z,48.61
2018-09-05T14:57:14.631Z,48.92
2018-09-05T14:59:43.039Z,49.58
2018-09-05T15:02:11.426Z,50.07
2018-09-05T15:04:39.964Z,49.88
2018-09-05T15:07:08.356Z,49.57
2018-09-05T15:09:36.747Z,50.05
2018-09-05T15:12:05.123Z,49.21
2018-09-05T15:14:33.525Z,50.72
2018-09-05T15:17:02.013Z,50.29
2018-09-05T15:19:30.435Z,50.56
2018-09-05T15:21:58.815Z,50.47
2018-09-05T15:24:27.207Z,50.76
2018-09-05T15:26:55.662Z,50.52
2018-09-05T15:29:24.059Z,51.50
2018-09-05T15:31:52.447Z,52.46
2018-09-05T15:34:20.845Z,51.43
2018-09-05T15:36:49.219Z,51.85
2018-09-05T15:39:17.640Z,52.55
2018-09-05T15:41:46.049Z,52.46
2018-09-05T15:44:14.467Z,53.23
2018-09-05T15:46:42.842Z,53.47
2018-09-05T15:49:11.269Z,53.54
2018-09-05T15:51:39.657Z,52.33
2018-09-05T15:54:08.071Z,52.51
2018-09-05T15:56:36.461Z,53.62
2018-09-05T15:59:04.867Z,53.56
2018-09-05T16:01:33.254Z,53.13
2018-09-05T16:04:01.658Z,53.58
2018-09-05T16:06:30.036Z,53.97
2018-09-05T16:08:58.426Z,54.21
2018-09-05T16:11:26.798Z,55.22
2018-09-05T16:13:55.207Z,54.71
2018-09-05T16:16:24.163Z,54.94
2018-09-05T16:18:52.564Z,55.52
2018-09-05T16:21:20.955Z,55.56
2018-09-05T16:23:49.362Z,55.74
2018-09-05T16:26:17.764Z,56.01
2018-09-05T16:28:46.215Z,57.14
2018-09-05T16:31:14.599Z,56.78
2018-09-05T16:33:43.007Z,57.48
2018-09-05T16:36:11.432Z,57.82
2018-09-05T16:38:39.808Z,58.17
2018-09-05T16:41:08.190Z,58.06
2018-09-05T16:43:36.573Z,57.71
2018-09-05T16:46:04.960Z,57.58
2018-09-05T16:48:33.340Z,58.55
2018-09-05T16:51:01.745Z,58.26
2018-09-05T16:53:30.144Z,57.59
2018-09-05T16:55:58.538Z,57.20
2018-09-05T16:58:26.907Z,57.31
2018-09-05T17:00:55.306Z,57.06
2018-09-05T17:03:23.670Z,58.07
2018-09-05T17:05:52.071Z,57.54
2018-09-05T17:08:20.446Z,57.71
2018-09-05T17:10:48.833Z,57.58
2018-09-05T17:13:17.207Z,57.83
2018-09-05T17:15:45.619Z,58.70
2018-09-05T17:18:13.999Z,59.40
2018-09-05T17:20:42.419Z,59.68
2018-09-05T17:23:10.795Z,60.31
2018-09-05T17:25:39.191Z,60.27
2018-09-05T17:28:07.587Z,60.63
2018-09-05T17:30:35.988Z,61.62
2018-09-05T17:33:04.367Z,61.25
2018-09-05T17:35:32.786Z,62.40
2018-09-05T17:38:01.177Z,62.80
2018-09-05T17:40:29.575Z,62.22
2018-09-05T17:42:57.956Z,63.21
2018-09-05T17:45:26.447Z,62.69
2018-09-05T17:47:54.824Z,62.89
2018-09-05T17:50:23.223Z,62.93
2018-09-05T17:52:51.663Z,63.34
2018-09-05T17:55:20.075Z,63.92
2018-09-05T17:57:48.449Z,64.01
2018-09-05T18:00:16.842Z,63.62
2018-09-05T18:02:45.213Z,64.56
2018-09-05T18:05:13.652Z,64.27
2018-09-05T18:07:42.021Z,64.14
2018-09-05T18:10:10.419Z,64.68
2018-09-05T18:12:38.806Z,66.48
2018-09-05T18:15:07.255Z,65.43
2018-09-05T18:17:35.646Z,66.66
2018-09-05T18:20:04.075Z,66.94
2018-09-05T18:22:32.451Z,66.44
2018-09-05T18:25:00.854Z,67.56
2018-09-05T18:27:29.231Z,67.90
2018-09-05T18:29:57.639Z,67.81
2018-09-05T18:32:26.244Z,67.88
2018-09-05T18:34:54.643Z,69.00
2018-09-05T18:37:23.024Z,69.29
2018-09-05T18:39:51.428Z,69.37
2018-09-05T18:42:19.842Z,69.39
2018-09-05T18:44:48.246Z,69.87
2018-09-05T18:47:16.724Z,70.66
2018-09-05T18:49:45.093Z,71.35
2018-09-05T18:52:13.494Z,70.80
2018-09-05T18:54:41.866Z,72.46
2018-09-05T18:57:10.259Z,72.46
2018-09-05T18:59:38.626Z,72.73
2018-09-05T19:02:07.357Z,73.12
2018-09-05T19:04:36.324Z,73.35
2018-09-05T19:07:05.090Z,72.96
2018-09-05T19:09:33.468Z,73.56
2018-09-05T19:12:01.871Z,73.93
2018-09-05T19:14:30.259Z,73.82
2018-09-05T19:16:58.709Z,73.94
2018-09-05T19:19:27.167Z,75.05
2018-09-05T19:21:55.581Z,74.44
2018-09-05T19:24:23.959Z,74.92
2018-09-05T19:26:52.349Z,75.30
2018-09-05T19:29:20.727Z,75.80
2018-09-05T19:31:49.129Z,75.55
2018-09-05T19:34:17.513Z,75.85
2018-09-05T19:36:45.911Z,76.83
2018-09-05T19:39:14.286Z,76.18
2018-09-05T19:41:42.684Z,77.33
2018-09-05T19:44:11.062Z,76.59
2018-09-05T19:46:39.459Z,77.39
2018-09-05T19:49:07.893Z,77.00
2018-09-05T19:51:36.443Z,77.15
2018-09-05T19:54:04.814Z,77.25
2018-09-05T19:56:33.216Z,77.45
2018-09-05T19:59:01.599Z,77.69
2018-09-05T20:01:30.168Z,77.62
2018-09-05T20:03:58.547Z,77.94
2018-09-05T20:06:26.952Z,78.36
2018-09-05T20:08:55.482Z,78.60
2018-09-05T20:11:23.897Z,78.79
2018-09-05T20:13:52.312Z,77.96
2018-09-05T20:16:20.711Z,78.53
2018-09-05T20:18:49.112Z,79.22
2018-09-05T20:21:17.544Z,79.07
2018-09-05T20:23:45.923Z,79.71
2018-09-05T20:26:14.322Z,79.07
2018-09-05T20:28:42.700Z,80.09
2018-09-05T20:31:11.131Z,79.36
2018-09-05T20:33:39.506Z,79.53
2018-09-05T20:36:07.903Z,80.17
2018-09-05T20:38:36.285Z,79.71
2018-09-05T20:41:04.683Z,80.46
2018-09-05T20:43:33.134Z,79.93
2018-09-05T20:46:01.480Z,80.23
2018-09-05T20:48:29.885Z,80.63
2018-09-05T20:50:58.557Z,80.14
2018-09-05T20:53:26.962Z,80.63
2018-09-05T20:55:55.347Z,80.31
2018-09-05T20:58:23.745Z,80.73
2018-09-05T21:00:52.127Z,80.95
2018-09-05T21:03:20.530Z,81.17
2018-09-05T21:05:48.923Z,81.42
2018-09-05T21:08:17.334Z,81.00
2018-09-05T21:10:45.720Z,80.79
2018-09-05T21:13:14.118Z,81.24
2018-09-05T21:15:42.499Z,82.16
2018-09-05T21:18:10.981Z,81.33
2018-09-05T21:20:39.342Z,81.41
2018-09-05T21:23:07.751Z,82.20
2018-09-05T21:25:36.135Z,81.44
2018-09-05T21:28:04.643Z,81.82
2018-09-05T21:30:33.023Z,81.96
2018-09-05T21:33:01.433Z,81.44
2018-09-05T21:35:29.814Z,81.55
2018-09-05T21:37:58.209Z,81.26
2018-09-05T21:40:26.591Z,81.34
2018-09-05T21:42:54.994Z,81.04
2018-09-05T21:45:23.374Z,80.65
2018-09-05T21:47:51.783Z,80.73
2018-09-05T21:50:20.163Z,80.60
2018-09-05T21:52:48.630Z,79.84
2018-09-05T21:55:16.995Z,80.40
2018-09-05T21:57:45.415Z,79.80
2018-09-05T22:00:13.811Z,80.67
2018-09-05T22:02:42.206Z,79.79
2018-09-05T22:05:10.587Z,79.97
2018-09-05T22:07:38.989Z,80.52
2018-09-05T22:10:07.371Z,80.16
2018-09-05T22:12:36.045Z,80.77
2018-09-05T22:15:04.952Z,80.83
2018-09-05T22:17:33.345Z,81.08
2018-09-05T22:20:01.734Z,80.65
2018-09-05T22:22:30.142Z,80.79
2018-09-05T22:24:58.509Z,80.83
2018-09-05T22:27:26.897Z,81.84
2018-09-05T22:29:55.274Z,81.62
2018-09-05T22:32:23.681Z,81.68
2018-09-05T22:34:52.095Z,82.00
2018-09-05T22:37:20.500Z,82.58
2018-09-05T22:39:48.885Z,82.60
2018-09-05T22:42:17.254Z,81.74
2018-09-05T22:44:57.330Z,81.87
2018-09-05T22:47:36.995Z,81.65
2018-09-05T22:50:23.772Z,81.81
2018-09-05T22:53:08.593Z,81.87
2018-09-05T22:55:50.180Z,82.33
2018-09-05T22:59:31.867Z,81.92
2018-09-05T23:04:16.422Z,82.00
2018-09-05T23:06:57.988Z,81.69
2018-09-05T23:09:37.611Z,82.00
2018-09-05T23:13:17.087Z,82.34
2018-09-05T23:15:56.972Z,82.08
2018-09-05T23:18:36.751Z,81.91
2018-09-05T23:21:16.647Z,82.16
2018-09-05T23:23:57.147Z,83.33
2018-09-05T23:26:25.562Z,84.11
2018-09-05T23:28:54.074Z,83.36
2018-09-05T23:31:22.787Z,83.91
2018-09-05T23:33:51.175Z,84.38
2018-09-05T23:36:19.944Z,84.11
2018-09-05T23:38:48.343Z,84.25
2018-09-05T23:41:16.783Z,84.07
2018-09-05T23:43:45.167Z,84.35
2018-09-05T23:46:13.871Z,84.47
2018-09-05T23:48:42.255Z,85.07
2018-09-05T23:51:10.675Z,85.19
2018-09-05T23:53:39.067Z,85.30
2018-09-05T23:56:07.480Z,84.52
2018-09-05T23:58:35.870Z,84.71
